Time;durP1;ratioP1;P1;durP2;ratioP2;P2;SDS_P1;SDS_P2;PMS_P1;PMS_P2;Temp;Humidity;BMP_temperature;BMP_pressure;BME280_temperature;BME280_humidity;BME280_pressure;Samples;Min_cycle;Max_cycle;Signal;HPM_P1;HPM_P2
2024/01/23 00:00:33;;;;;;;5.55;3.00;;;8.30;99.90;;;;;;5032652;28;20198;-78
2024/01/23 00:02:59;;;;;;;0.98;0.88;;;8.30;99.90;;;;;;5032352;28;20245;-78
2024/01/23 00:05:26;;;;;;;9.35;3.08;;;8.30;99.90;;;;;;5032361;28;20671;-78
2024/01/23 00:07:53;;;;;;;62.95;3.58;;;8.30;99.90;;;;;;5032264;28;20607;-78
2024/01/23 00:10:22;;;;;;;0.60;0.50;;;8.30;99.90;;;;;;5032290;28;20211;-78
2024/01/23 00:12:49;;;;;;;0.50;0.40;;;8.20;99.90;;;;;;5032011;28;20228;-79
2024/01/23 00:15:16;;;;;;;4.80;1.75;;;7.90;99.90;;;;;;5042989;22;20725;-81
2024/01/23 00:17:44;;;;;;;12.35;1.75;;;7.70;99.90;;;;;;5032492;28;20196;-80
2024/01/23 00:20:12;;;;;;;8.38;0.85;;;7.50;99.90;;;;;;5035338;28;20196;-81
2024/01/23 00:22:39;;;;;;;0.50;0.40;;;7.40;99.90;;;;;;5035063;28;20545;-80
2024/01/23 00:25:06;;;;;;;3.00;0.60;;;7.30;99.90;;;;;;5031549;28;20227;-79
2024/01/23 00:27:33;;;;;;;2.05;1.25;;;7.20;99.90;;;;;;5022672;28;20200;-80
2024/01/23 00:29:59;;;;;;;1.15;0.85;;;7.20;99.90;;;;;;5026903;28;20223;-79
2024/01/23 00:32:30;;;;;;;7.88;0.77;;;7.20;99.90;;;;;;5034150;28;20196;-81
2024/01/23 00:34:58;;;;;;;0.50;0.40;;;7.20;99.90;;;;;;5034914;28;20643;-80
2024/01/23 00:37:25;;;;;;;0.77;0.77;;;7.20;99.90;;;;;;5034736;28;20200;-81
2024/01/23 00:39:54;;;;;;;5.93;0.80;;;7.20;99.90;;;;;;5032930;28;20607;-81
2024/01/23 00:42:21;;;;;;;0.95;0.50;;;7.20;99.90;;;;;;5030573;28;20199;-81
2024/01/23 00:44:48;;;;;;;0.77;0.50;;;7.20;99.90;;;;;;5037777;28;20243;-80
2024/01/23 00:47:14;;;;;;;5.57;0.70;;;7.30;99.90;;;;;;5025428;28;20227;-80
2024/01/23 00:49:41;;;;;;;13.85;0.98;;;7.20;99.90;;;;;;5035951;28;20226;-79
2024/01/23 00:52:09;;;;;;;1.00;0.50;;;7.20;99.90;;;;;;5016622;28;20682;-79
2024/01/23 00:54:36;;;;;;;1.25;0.60;;;7.20;99.90;;;;;;5019289;28;20227;-79
2024/01/23 00:57:05;;;;;;;0.60;0.60;;;7.20;99.90;;;;;;5033989;28;20200;-79
2024/01/23 00:59:31;;;;;;;0.93;0.93;;;7.10;99.90;;;;;;5029932;28;20200;-80
2024/01/23 01:01:58;;;;;;;1.95;1.42;;;7.20;99.90;;;;;;5033724;28;20200;-79
2024/01/23 01:04:25;;;;;;;0.50;0.50;;;7.20;99.90;;;;;;5033180;28;20215;-79
2024/01/23 01:06:52;;;;;;;0.70;0.70;;;7.20;99.90;;;;;;5039122;28;20207;-78
2024/01/23 01:09:20;;;;;;;1.85;1.35;;;7.20;99.90;;;;;;5039621;28;20208;-80
2024/01/23 01:11:47;;;;;;;11.32;1.35;;;7.20;99.90;;;;;;5037817;28;20200;-80
2024/01/23 01:14:14;;;;;;;1.70;0.80;;;7.20;99.90;;;;;;5018339;28;20211;-80
2024/01/23 01:16:40;;;;;;;2.65;0.93;;;7.20;99.90;;;;;;5037203;28;20286;-81
2024/01/23 01:19:07;;;;;;;0.50;0.40;;;7.20;99.90;;;;;;5028870;28;20193;-80
2024/01/23 01:21:34;;;;;;;0.63;0.63;;;7.10;99.90;;;;;;5026562;28;20195;-79
2024/01/23 01:24:01;;;;;;;0.50;0.40;;;7.10;99.90;;;;;;5039263;28;20207;-79
2024/01/23 01:26:29;;;;;;;0.55;0.47;;;7.10;99.90;;;;;;5038872;28;20686;-80
2024/01/23 01:28:56;;;;;;;9.18;1.20;;;7.10;99.90;;;;;;5039186;28;20203;-79
2024/01/23 01:31:22;;;;;;;1.30;0.85;;;7.10;99.90;;;;;;5039589;28;20202;-79
2024/01/23 01:33:49;;;;;;;0.50;0.40;;;7.10;99.90;;;;;;5032815;28;20211;-80
2024/01/23 01:36:16;;;;;;;5.97;1.77;;;7.10;99.90;;;;;;5041530;28;20220;-80
2024/01/23 01:38:43;;;;;;;1.80;1.15;;;7.10;99.90;;;;;;5031752;28;20200;-80
2024/01/23 01:41:09;;;;;;;0.50;0.40;;;7.10;99.90;;;;;;5027124;28;20196;-81
2024/01/23 01:43:37;;;;;;;0.50;0.40;;;7.10;99.90;;;;;;5019428;28;20200;-79
2024/01/23 01:46:16;;;;;;;0.70;0.70;;;7.10;99.90;;;;;;5037209;28;20238;-80
2024/01/23 01:48:43;;;;;;;1.05;0.95;;;7.10;99.90;;;;;;5031570;28;20676;-79
2024/01/23 01:51:11;;;;;;;0.60;0.60;;;7.10;99.90;;;;;;5020380;28;20216;-80
2024/01/23 01:53:38;;;;;;;0.77;0.77;;;7.10;99.90;;;;;;5019207;28;20652;-81
2024/01/23 01:56:07;;;;;;;2.38;2.20;;;7.10;99.90;;;;;;5031188;28;20277;-78
2024/01/23 01:58:37;;;;;;;1.67;1.63;;;7.10;99.90;;;;;;5031852;28;20196;-79
2024/01/23 02:01:04;;;;;;;3.03;2.72;;;7.20;99.90;;;;;;5023080;28;20211;-80
2024/01/23 02:03:30;;;;;;;0.50;0.30;;;7.20;99.90;;;;;;5030319;28;20202;-80
2024/01/23 02:05:58;;;;;;;3.90;1.58;;;7.20;99.90;;;;;;5037499;28;20220;-79
2024/01/23 02:08:26;;;;;;;0.50;0.40;;;7.20;99.90;;;;;;5037212;28;20210;-78
2024/01/23 02:10:54;;;;;;;0.50;0.40;;;7.20;99.90;;;;;;5032805;28;20235;-80
2024/01/23 02:13:21;;;;;;;0.50;0.40;;;7.10;99.90;;;;;;5028035;28;20196;-79
2024/01/23 02:15:49;;;;;;;0.50;0.40;;;7.10;99.90;;;;;;5019318;28;20233;-79
2024/01/23 02:18:16;;;;;;;0.50;0.40;;;7.00;99.90;;;;;;5025062;28;20198;-80
2024/01/23 02:20:43;;;;;;;0.50;0.50;;;7.10;99.90;;;;;;5040915;28;20199;-81
2024/01/23 02:23:12;;;;;;;1.23;0.68;;;7.10;99.90;;;;;;5038267;28;20195;-79
2024/01/23 02:25:40;;;;;;;0.80;0.60;;;7.10;99.90;;;;;;5033959;28;20220;-80
2024/01/23 02:28:08;;;;;;;0.50;0.40;;;7.10;99.90;;;;;;5020611;28;20196;-78
2024/01/23 02:30:35;;;;;;;1.35;0.90;;;7.10;99.90;;;;;;5026089;28;20212;-80
2024/01/23 02:33:03;;;;;;;0.50;0.50;;;7.20;99.90;;;;;;5039739;28;20203;-79
2024/01/23 02:35:30;;;;;;;3.45;1.50;;;7.10;99.90;;;;;;5031879;28;20270;-79
2024/01/23 02:37:56;;;;;;;1.05;0.98;;;7.20;99.90;;;;;;5039910;28;20210;-81
2024/01/23 02:40:23;;;;;;;0.50;0.40;;;7.20;99.90;;;;;;5039479;28;20250;-79
2024/01/23 02:42:51;;;;;;;1.13;0.88;;;7.20;99.90;;;;;;5032054;28;20305;-79
2024/01/23 02:45:18;;;;;;;24.55;1.48;;;7.20;99.90;;;;;;5035993;28;20228;-80
2024/01/23 02:47:45;;;;;;;0.70;0.50;;;7.30;99.90;;;;;;5033639;28;20206;-79
2024/01/23 02:50:12;;;;;;;0.50;0.40;;;7.30;99.90;;;;;;5030367;28;20596;-79
2024/01/23 02:52:39;;;;;;;1.90;1.05;;;7.30;99.90;;;;;;5020776;28;20208;-79
2024/01/23 02:55:06;;;;;;;1.73;1.63;;;7.30;99.90;;;;;;5021035;28;20227;-81
2024/01/23 02:57:33;;;;;;;0.70;0.68;;;7.30;99.90;;;;;;5040025;28;20210;-80
2024/01/23 03:00:01;;;;;;;8.68;0.85;;;7.30;99.90;;;;;;5030168;28;20201;-80
2024/01/23 03:02:28;;;;;;;2.17;0.63;;;7.30;99.90;;;;;;5019572;28;20275;-80
2024/01/23 03:04:55;;;;;;;1.60;1.00;;;7.30;99.90;;;;;;5027664;28;20715;-79
2024/01/23 03:07:22;;;;;;;0.50;0.40;;;7.40;99.90;;;;;;5029764;28;20192;-79
2024/01/23 03:09:48;;;;;;;0.93;0.60;;;7.30;99.90;;;;;;5037724;28;20222;-78
2024/01/23 03:12:16;;;;;;;0.50;0.40;;;7.30;99.90;;;;;;5037665;28;20203;-78
2024/01/23 03:14:43;;;;;;;11.32;1.75;;;7.40;99.90;;;;;;5022327;28;20232;-79
2024/01/23 03:17:12;;;;;;;1.85;1.73;;;7.30;99.90;;;;;;5017985;28;20247;-79
2024/01/23 03:19:39;;;;;;;4.22;2.00;;;7.30;99.90;;;;;;5030068;28;20200;-80
2024/01/23 03:22:06;;;;;;;1.23;1.05;;;7.30;99.90;;;;;;5033375;28;20227;-79
2024/01/23 03:24:33;;;;;;;0.50;0.40;;;7.30;99.90;;;;;;5030811;28;20212;-79
2024/01/23 03:27:01;;;;;;;1.27;0.77;;;7.30;99.90;;;;;;5021037;28;20704;-79
2024/01/23 03:29:28;;;;;;;2.25;1.70;;;7.30;99.90;;;;;;5018456;28;20290;-79
2024/01/23 03:31:55;;;;;;;2.45;1.30;;;7.20;99.90;;;;;;5017077;28;20197;-80
2024/01/23 03:34:25;;;;;;;0.50;0.40;;;7.20;99.90;;;;;;5036880;28;20223;-79
2024/01/23 03:36:52;;;;;;;2.35;0.82;;;7.20;99.90;;;;;;5036604;28;20210;-79
2024/01/23 03:39:19;;;;;;;0.50;0.43;;;7.20;99.90;;;;;;5035341;28;20211;-79
2024/01/23 03:41:45;;;;;;;0.55;0.45;;;7.20;99.90;;;;;;5017080;28;20211;-79
2024/01/23 03:44:12;;;;;;;0.50;0.50;;;7.30;99.90;;;;;;5025713;28;20204;-80
2024/01/23 03:46:39;;;;;;;0.50;0.50;;;7.20;99.90;;;;;;5021062;28;20192;-79
2024/01/23 03:49:05;;;;;;;0.70;0.63;;;7.20;99.90;;;;;;5037843;28;20590;-79
2024/01/23 03:51:33;;;;;;;5.45;3.05;;;7.20;99.90;;;;;;5040558;28;20214;-79
2024/01/23 03:54:00;;;;;;;0.98;0.98;;;7.20;99.90;;;;;;5019818;28;20212;-79
2024/01/23 03:56:27;;;;;;;0.60;0.60;;;7.10;99.90;;;;;;5037064;28;20653;-79
2024/01/23 03:58:54;;;;;;;0.50;0.40;;;7.20;99.90;;;;;;5036064;28;20200;-80
2024/01/23 04:01:21;;;;;;;0.50;0.50;;;7.10;99.90;;;;;;5033280;28;20628;-80
2024/01/23 04:03:47;;;;;;;0.60;0.60;;;7.00;99.90;;;;;;5023571;28;20196;-80
2024/01/23 04:06:14;;;;;;;0.70;0.70;;;7.00;99.90;;;;;;5032668;28;20227;-80
2024/01/23 04:08:42;;;;;;;1.67;1.58;;;6.90;99.90;;;;;;5033797;28;20286;-79
2024/01/23 04:11:09;;;;;;;0.90;0.90;;;6.80;99.90;;;;;;5022589;28;20278;-81
2024/01/23 04:13:36;;;;;;;3.58;0.88;;;6.80;99.90;;;;;;5033567;28;20210;-78
2024/01/23 04:16:05;;;;;;;1.73;0.77;;;6.80;99.90;;;;;;5025482;28;20227;-79
2024/01/23 04:18:32;;;;;;;2.35;1.30;;;6.70;99.90;;;;;;5033458;28;20200;-80
2024/01/23 04:20:59;;;;;;;0.50;0.40;;;6.70;99.90;;;;;;5029526;28;20196;-80
2024/01/23 04:23:26;;;;;;;10.30;0.90;;;6.70;99.90;;;;;;5034619;28;20259;-79
2024/01/23 04:25:54;;;;;;;0.77;0.63;;;6.60;99.90;;;;;;5026324;28;20812;-78
2024/01/23 04:28:21;;;;;;;0.55;0.47;;;6.70;99.90;;;;;;5034340;28;20215;-79
2024/01/23 04:30:48;;;;;;;0.50;0.40;;;6.70;99.90;;;;;;5028981;28;20632;-79
2024/01/23 04:33:15;;;;;;;0.50;0.40;;;6.70;99.90;;;;;;5033565;28;20196;-79
2024/01/23 04:35:42;;;;;;;0.50;0.40;;;6.60;99.90;;;;;;5034638;28;20227;-80
2024/01/23 04:38:08;;;;;;;3.63;0.98;;;6.60;99.90;;;;;;5025873;28;20228;-79
2024/01/23 04:40:35;;;;;;;0.60;0.50;;;6.50;99.90;;;;;;5019725;28;20192;-80
2024/01/23 04:43:04;;;;;;;0.50;0.40;;;6.40;99.90;;;;;;5033183;28;20578;-80
2024/01/23 04:45:30;;;;;;;1.15;0.95;;;6.40;99.90;;;;;;5032514;28;20219;-80
2024/01/23 04:47:57;;;;;;;0.50;0.40;;;6.40;99.90;;;;;;5033124;28;20211;-81
2024/01/23 04:50:24;;;;;;;0.50;0.40;;;6.40;99.90;;;;;;5021486;28;20218;-79
2024/01/23 04:52:52;;;;;;;0.77;0.60;;;6.40;99.90;;;;;;5027238;28;20207;-79
2024/01/23 04:55:18;;;;;;;0.50;0.50;;;6.50;99.90;;;;;;5022919;28;20295;-80
2024/01/23 04:57:45;;;;;;;0.50;0.40;;;6.50;99.90;;;;;;5031374;28;20199;-79
2024/01/23 05:00:15;;;;;;;0.60;0.60;;;6.50;99.90;;;;;;5037677;28;20196;-79
2024/01/23 05:02:41;;;;;;;0.50;0.40;;;6.50;99.90;;;;;;5029935;28;20204;-79
2024/01/23 05:05:08;;;;;;;0.60;0.50;;;6.50;99.90;;;;;;5037475;28;20223;-79
2024/01/23 05:07:35;;;;;;;0.60;0.60;;;6.50;99.90;;;;;;5037188;28;20196;-80
2024/01/23 05:10:04;;;;;;;5.38;2.15;;;6.50;99.90;;;;;;5031855;28;20234;-80
2024/01/23 05:12:31;;;;;;;0.50;0.50;;;6.40;99.90;;;;;;5021120;28;20227;-80
2024/01/23 05:14:57;;;;;;;1.23;0.60;;;6.40;99.90;;;;;;5018440;28;20233;-79
2024/01/23 05:17:25;;;;;;;0.50;0.40;;;6.30;99.90;;;;;;5022011;28;20196;-79
2024/01/23 05:19:52;;;;;;;0.50;0.40;;;6.30;99.90;;;;;;5027129;28;20196;-80
2024/01/23 05:22:19;;;;;;;0.63;0.63;;;6.20;99.90;;;;;;5030816;28;20583;-80
2024/01/23 05:24:46;;;;;;;11.82;0.88;;;6.20;99.90;;;;;;5031350;28;20223;-80
2024/01/23 05:27:12;;;;;;;0.73;0.55;;;6.10;99.90;;;;;;5031271;28;20206;-78
2024/01/23 05:29:39;;;;;;;9.30;0.75;;;6.00;99.90;;;;;;5032348;28;20234;-79
2024/01/23 05:32:06;;;;;;;14.00;2.35;;;6.00;99.90;;;;;;5042590;28;20212;-82
2024/01/23 05:34:35;;;;;;;1.90;1.77;;;6.00;99.90;;;;;;5047860;28;20212;-80
2024/01/23 05:37:02;;;;;;;2.97;0.77;;;6.00;99.90;;;;;;5048421;28;20196;-80
2024/01/23 05:39:29;;;;;;;0.50;0.50;;;6.00;99.90;;;;;;5045549;28;20673;-81
2024/01/23 05:41:56;;;;;;;0.50;0.40;;;5.90;99.90;;;;;;5033084;28;20200;-81
2024/01/23 05:44:23;;;;;;;4.00;1.92;;;5.90;99.90;;;;;;5037163;28;20201;-81
2024/01/23 05:46:49;;;;;;;3.88;1.48;;;5.90;99.90;;;;;;5034947;28;20207;-80
2024/01/23 05:49:16;;;;;;;0.50;0.40;;;5.80;99.90;;;;;;5045189;28;20201;-81
2024/01/23 05:51:44;;;;;;;0.93;0.82;;;5.80;99.90;;;;;;5032951;28;20218;-82
2024/01/23 05:54:11;;;;;;;0.50;0.40;;;5.80;99.90;;;;;;5037479;28;20227;-83
2024/01/23 05:56:38;;;;;;;0.50;0.40;;;5.80;99.90;;;;;;5031452;28;20202;-83
2024/01/23 05:59:04;;;;;;;0.63;0.63;;;5.70;99.90;;;;;;5037785;28;20211;-82
2024/01/23 06:01:33;;;;;;;0.50;0.40;;;5.70;99.90;;;;;;5038907;28;20204;-82
2024/01/23 06:03:59;;;;;;;0.82;0.57;;;5.70;99.90;;;;;;5038563;28;20200;-82
2024/01/23 06:06:26;;;;;;;0.50;0.40;;;5.70;99.90;;;;;;5038875;28;20219;-82
2024/01/23 06:08:54;;;;;;;0.57;0.55;;;5.70;99.90;;;;;;5038666;28;20200;-83
2024/01/23 06:11:20;;;;;;;0.50;0.50;;;5.70;99.90;;;;;;5030251;28;20243;-82
2024/01/23 06:13:47;;;;;;;3.60;0.60;;;5.70;99.90;;;;;;5033814;28;20651;-83
2024/01/23 06:16:13;;;;;;;0.70;0.70;;;5.70;99.90;;;;;;5040280;28;20231;-83
2024/01/23 06:18:40;;;;;;;1.70;1.60;;;5.70;99.90;;;;;;5039891;28;20202;-82
2024/01/23 06:21:07;;;;;;;2.97;0.63;;;5.70;99.90;;;;;;5038583;28;20188;-82
2024/01/23 06:23:34;;;;;;;0.80;0.70;;;5.70;99.90;;;;;;5034984;28;20200;-82
2024/01/23 06:26:02;;;;;;;0.50;0.40;;;5.70;99.90;;;;;;5031085;28;20251;-82
2024/01/23 06:28:29;;;;;;;0.60;0.55;;;5.70;99.90;;;;;;5035084;28;20250;-82
2024/01/23 06:30:55;;;;;;;0.50;0.40;;;5.70;99.90;;;;;;5031639;28;20221;-82
2024/01/23 06:33:22;;;;;;;0.50;0.40;;;5.70;99.90;;;;;;5029744;28;20201;-82
2024/01/23 06:35:49;;;;;;;0.50;0.40;;;5.70;99.90;;;;;;5029398;28;20587;-82
2024/01/23 06:38:16;;;;;;;2.00;1.27;;;5.60;99.90;;;;;;5036819;28;20207;-82
2024/01/23 06:40:42;;;;;;;15.35;1.55;;;5.60;99.90;;;;;;5025097;28;20199;-79
2024/01/23 06:43:10;;;;;;;0.50;0.40;;;5.50;99.90;;;;;;5017856;28;20291;-82
2024/01/23 06:45:37;;;;;;;2.40;2.25;;;5.50;99.90;;;;;;5019596;28;20216;-82
2024/01/23 06:48:05;;;;;;;0.60;0.60;;;5.50;99.90;;;;;;5022196;28;20603;-83
2024/01/23 06:50:32;;;;;;;1.27;1.17;;;5.50;99.90;;;;;;5018429;28;20196;-82
2024/01/23 06:52:58;;;;;;;1.70;1.55;;;5.50;99.90;;;;;;5028204;28;20265;-82
2024/01/23 06:55:25;;;;;;;0.50;0.50;;;5.50;99.90;;;;;;5036593;28;20215;-82
2024/01/23 06:57:52;;;;;;;0.50;0.40;;;5.50;99.90;;;;;;5039415;28;20199;-83
2024/01/23 07:00:21;;;;;;;8.63;1.35;;;5.50;99.90;;;;;;5025627;28;20201;-82
2024/01/23 07:02:48;;;;;;;0.50;0.40;;;5.50;99.90;;;;;;5029514;28;20196;-82
2024/01/23 07:05:15;;;;;;;0.88;0.73;;;5.50;99.90;;;;;;5036013;28;20564;-82
2024/01/23 07:07:42;;;;;;;2.30;1.30;;;5.50;99.90;;;;;;5035680;28;20195;-82
2024/01/23 07:10:10;;;;;;;1.05;1.05;;;5.50;99.90;;;;;;5028008;28;20200;-82
2024/01/23 07:12:36;;;;;;;0.50;0.40;;;5.60;99.90;;;;;;5017675;28;20216;-82
2024/01/23 07:15:04;;;;;;;0.50;0.40;;;5.60;99.90;;;;;;5016241;28;20231;-82
2024/01/23 07:17:32;;;;;;;0.88;0.82;;;5.50;99.90;;;;;;5019241;28;20556;-82
2024/01/23 07:20:00;;;;;;;8.35;1.95;;;5.60;99.90;;;;;;5040370;28;20203;-81
2024/01/23 07:22:27;;;;;;;0.50;0.50;;;5.60;99.90;;;;;;5040081;28;20196;-82
2024/01/23 07:24:53;;;;;;;2.35;2.15;;;5.60;99.90;;;;;;5040055;28;20216;-82
2024/01/23 07:27:20;;;;;;;0.50;0.40;;;5.60;99.90;;;;;;5039458;28;20544;-82
2024/01/23 07:29:47;;;;;;;4.93;0.60;;;5.60;99.90;;;;;;5033257;28;20257;-82
2024/01/23 07:32:14;;;;;;;2.65;0.70;;;5.60;99.90;;;;;;5034335;28;20323;-82
2024/01/23 07:34:42;;;;;;;0.70;0.70;;;5.60;99.90;;;;;;5021335;28;20224;-81
2024/01/23 07:37:09;;;;;;;1.45;1.13;;;5.60;99.90;;;;;;5041075;28;20207;-80
2024/01/23 07:39:36;;;;;;;0.50;0.40;;;5.60;99.90;;;;;;5029603;28;20207;-82
2024/01/23 07:42:03;;;;;;;0.60;0.50;;;5.70;99.90;;;;;;5039023;28;20196;-82
2024/01/23 07:44:32;;;;;;;7.53;1.08;;;5.60;99.90;;;;;;5037814;28;20211;-82
2024/01/23 07:46:59;;;;;;;0.50;0.47;;;5.60;99.90;;;;;;5037849;28;20227;-83
2024/01/23 07:49:26;;;;;;;1.38;0.68;;;5.60;99.90;;;;;;5021474;28;20197;-81
2024/01/23 07:51:54;;;;;;;0.50;0.40;;;5.60;99.90;;;;;;5037596;28;20208;-81
2024/01/23 07:54:21;;;;;;;0.50;0.40;;;5.60;99.90;;;;;;5038032;28;20550;-82
2024/01/23 07:56:48;;;;;;;0.70;0.70;;;5.50;99.90;;;;;;5037578;28;20191;-83
2024/01/23 07:59:14;;;;;;;1.00;0.90;;;5.50;99.90;;;;;;5037500;28;20210;-82
2024/01/23 08:01:41;;;;;;;5.10;2.25;;;5.50;99.90;;;;;;5037278;28;20199;-82
2024/01/23 08:04:08;;;;;;;3.45;0.70;;;5.50;99.90;;;;;;5037559;28;20202;-82
2024/01/23 08:06:35;;;;;;;1.40;1.30;;;5.50;99.90;;;;;;5037937;28;20192;-82
2024/01/23 08:09:04;;;;;;;1.00;0.60;;;5.60;99.90;;;;;;5024810;28;20196;-82
2024/01/23 08:11:31;;;;;;;0.50;0.40;;;5.60;99.90;;;;;;5034001;28;20238;-82
2024/01/23 08:13:58;;;;;;;0.50;0.50;;;5.60;99.90;;;;;;5022644;28;20195;-82
2024/01/23 08:16:25;;;;;;;2.22;1.50;;;5.70;99.90;;;;;;5030449;28;20233;-82
2024/01/23 08:18:52;;;;;;;2.35;1.52;;;5.80;99.90;;;;;;5030208;28;20196;-82
2024/01/23 08:21:19;;;;;;;2.50;0.65;;;5.90;99.90;;;;;;5030370;28;20703;-81
2024/01/23 08:23:46;;;;;;;0.50;0.40;;;6.00;99.90;;;;;;5036919;28;20199;-82
2024/01/23 08:26:14;;;;;;;0.50;0.40;;;6.10;99.90;;;;;;5037540;28;20220;-82
2024/01/23 08:28:42;;;;;;;0.50;0.40;;;6.20;99.90;;;;;;5036164;28;20335;-82
2024/01/23 08:31:08;;;;;;;0.50;0.40;;;6.40;99.90;;;;;;5018209;28;20243;-82
2024/01/23 08:33:35;;;;;;;2.45;0.75;;;6.60;99.90;;;;;;5035930;28;20205;-82
2024/01/23 08:36:03;;;;;;;0.98;0.98;;;6.80;99.90;;;;;;5034404;28;20228;-82
2024/01/23 08:38:30;;;;;;;0.50;0.40;;;7.00;99.90;;;;;;5026427;28;20199;-80
2024/01/23 08:40:57;;;;;;;1.80;1.17;;;7.10;99.90;;;;;;5017414;28;20232;-82
2024/01/23 08:43:25;;;;;;;38.15;2.88;;;7.40;99.90;;;;;;5024848;28;20204;-82
2024/01/23 08:45:52;;;;;;;1.80;1.00;;;7.60;99.90;;;;;;5037718;28;20215;-82
2024/01/23 08:48:21;;;;;;;0.50;0.50;;;7.90;99.90;;;;;;5037568;28;20191;-82
2024/01/23 08:50:50;;;;;;;5.80;0.80;;;8.10;99.90;;;;;;5029322;28;20274;-82
2024/01/23 08:53:17;;;;;;;0.85;0.45;;;8.00;99.90;;;;;;5037505;28;20251;-81
2024/01/23 08:55:46;;;;;;;2.15;1.95;;;7.90;99.90;;;;;;5029644;28;20699;-83
2024/01/23 08:58:15;;;;;;;1.17;1.05;;;7.80;99.90;;;;;;5037858;28;20211;-80
2024/01/23 09:00:44;;;;;;;1.70;1.42;;;7.90;99.90;;;;;;5035451;28;20195;-83
2024/01/23 09:03:11;;;;;;;2.47;1.40;;;8.40;99.90;;;;;;5023061;28;20634;-82
2024/01/23 09:05:37;;;;;;;2.15;1.70;;;8.70;99.90;;;;;;5028422;28;20226;-81
2024/01/23 09:08:05;;;;;;;3.42;1.60;;;9.00;99.90;;;;;;5036738;28;20200;-82
2024/01/23 09:10:32;;;;;;;1.67;1.58;;;9.00;99.90;;;;;;5037090;28;20196;-81
2024/01/23 09:12:58;;;;;;;4.15;1.08;;;9.30;99.90;;;;;;5018836;28;20212;-82
2024/01/23 09:15:25;;;;;;;3.17;2.10;;;9.20;99.90;;;;;;5024070;28;20230;-81
2024/01/23 09:17:53;;;;;;;1.13;1.02;;;9.00;99.90;;;;;;5036500;28;20295;-82
2024/01/23 09:20:20;;;;;;;0.50;0.40;;;9.00;99.90;;;;;;5037601;28;20204;-83
2024/01/23 09:22:47;;;;;;;5.80;1.23;;;9.20;99.90;;;;;;5029544;28;20218;-82
2024/01/23 09:25:14;;;;;;;2.05;1.23;;;9.20;99.90;;;;;;5041184;28;20610;-82
2024/01/23 09:27:41;;;;;;;4.55;1.15;;;9.10;99.90;;;;;;5040543;28;20218;-82
2024/01/23 09:30:09;;;;;;;1.98;1.30;;;8.90;99.90;;;;;;5033334;28;20205;-83
2024/01/23 09:32:36;;;;;;;0.50;0.50;;;8.80;99.90;;;;;;5040596;28;20284;-82
2024/01/23 09:35:06;;;;;;;10.70;2.30;;;8.80;99.90;;;;;;5030502;28;20220;-81
2024/01/23 09:37:33;;;;;;;2.05;0.90;;;8.80;99.90;;;;;;5028809;28;20199;-82
2024/01/23 09:40:00;;;;;;;2.33;1.17;;;8.90;99.90;;;;;;5041170;28;20196;-83
2024/01/23 09:42:28;;;;;;;0.73;0.73;;;9.20;99.90;;;;;;5040762;28;20192;-83
2024/01/23 09:44:56;;;;;;;1.33;1.25;;;9.20;99.90;;;;;;5029294;28;20231;-83
2024/01/23 09:47:24;;;;;;;1.10;1.00;;;9.50;99.90;;;;;;5020096;28;20196;-83
2024/01/23 09:49:52;;;;;;;1.85;1.75;;;9.40;99.90;;;;;;5039006;28;20405;-83
2024/01/23 09:52:22;;;;;;;4.88;1.05;;;9.20;99.90;;;;;;5040524;28;20216;-81
2024/01/23 09:54:49;;;;;;;0.52;0.47;;;9.10;99.90;;;;;;5031409;28;20603;-84
2024/01/23 09:57:16;;;;;;;9.07;3.60;;;9.40;99.90;;;;;;5026295;28;20291;-83
2024/01/23 09:59:44;;;;;;;1.15;0.75;;;9.60;99.90;;;;;;5032654;28;20196;-83
2024/01/23 10:02:11;;;;;;;1.13;1.02;;;9.30;99.90;;;;;;5040891;28;20192;-82
2024/01/23 10:04:37;;;;;;;0.50;0.40;;;9.00;99.90;;;;;;5041546;28;20216;-81
2024/01/23 10:07:08;;;;;;;0.50;0.50;;;8.80;99.90;;;;;;5032753;28;20210;-82
2024/01/23 10:09:38;;;;;;;7.15;0.95;;;8.80;99.90;;;;;;5032339;28;20208;-80
2024/01/23 10:12:05;;;;;;;4.20;1.70;;;9.00;99.90;;;;;;5032734;28;20219;-81
2024/01/23 10:14:32;;;;;;;4.68;2.80;;;9.00;99.90;;;;;;5040146;28;20766;-82
2024/01/23 10:16:59;;;;;;;4.85;1.95;;;9.00;99.90;;;;;;5029078;28;20604;-82
2024/01/23 10:19:25;;;;;;;3.60;1.95;;;9.10;99.90;;;;;;5034742;28;20214;-83
2024/01/23 10:21:54;;;;;;;1.02;0.50;;;9.10;99.90;;;;;;5031971;28;20199;-82
2024/01/23 10:24:21;;;;;;;1.95;0.50;;;9.00;99.90;;;;;;5040016;28;20563;-82
2024/01/23 10:26:49;;;;;;;4.20;2.75;;;9.00;99.90;;;;;;5039867;28;20222;-82
2024/01/23 10:29:16;;;;;;;4.10;0.80;;;8.80;99.90;;;;;;5036303;28;20202;-79
2024/01/23 10:31:43;;;;;;;3.47;0.70;;;8.90;99.90;;;;;;5047461;28;20214;-82
2024/01/23 10:34:12;;;;;;;1.40;1.25;;;9.20;99.90;;;;;;5047581;28;20196;-81
2024/01/23 10:36:39;;;;;;;28.23;1.85;;;9.50;99.90;;;;;;5048604;28;20203;-82
2024/01/23 10:39:06;;;;;;;0.70;0.60;;;9.90;99.90;;;;;;5040301;28;20310;-81
2024/01/23 10:41:34;;;;;;;0.60;0.60;;;10.00;99.90;;;;;;5042978;28;20201;-80
2024/01/23 10:44:03;;;;;;;0.60;0.50;;;10.10;99.90;;;;;;5044274;28;20621;-82
2024/01/23 10:46:31;;;;;;;0.88;0.88;;;9.70;99.90;;;;;;5036951;28;20630;-82
2024/01/23 10:48:58;;;;;;;0.80;0.73;;;9.80;99.90;;;;;;5021447;28;20223;-82
2024/01/23 10:51:30;;;;;;;0.50;0.40;;;9.70;99.90;;;;;;5035113;28;20214;-82
2024/01/23 10:54:04;;;;;;;1.95;1.13;;;9.80;99.90;;;;;;5023938;28;20220;-80
2024/01/23 10:56:34;;;;;;;6.32;0.77;;;10.00;99.90;;;;;;5040322;28;20218;-82
2024/01/23 10:59:09;;;;;;;11.83;2.47;;;10.20;99.90;;;;;;5038303;28;20199;-82
2024/01/23 11:01:39;;;;;;;3.70;2.28;;;10.20;99.90;;;;;;5036000;28;20434;-83
2024/01/23 11:04:06;;;;;;;0.67;0.63;;;10.50;99.90;;;;;;5040106;28;20656;-82
2024/01/23 11:06:37;;;;;;;6.10;2.25;;;10.70;99.90;;;;;;5030941;28;20445;-82
2024/01/23 11:09:09;;;;;;;0.60;0.50;;;10.80;99.90;;;;;;5039842;28;20206;-82
2024/01/23 11:11:42;;;;;;;3.08;2.88;;;10.30;99.90;;;;;;5039096;28;20659;-82
2024/01/23 11:14:17;;;;;;;0.70;0.70;;;10.10;99.90;;;;;;5031945;28;20193;-81
2024/01/23 11:17:02;;;;;;;0.50;0.50;;;10.00;99.90;;;;;;5028803;28;20222;-81
2024/01/23 11:19:29;;;;;;;0.50;0.40;;;9.90;99.90;;;;;;5039828;28;20265;-81
2024/01/23 11:22:02;;;;;;;0.50;0.40;;;9.60;99.90;;;;;;5038986;28;20210;-82
2024/01/23 11:24:40;;;;;;;2.65;1.00;;;9.60;99.90;;;;;;5031950;28;20216;-83
2024/01/23 11:27:07;;;;;;;0.50;0.50;;;9.50;99.90;;;;;;5030600;28;20188;-82
2024/01/23 11:29:36;;;;;;;14.20;1.15;;;9.40;99.90;;;;;;5030888;28;20213;-82
2024/01/23 11:32:16;;;;;;;0.68;0.68;;;9.30;99.90;;;;;;5030533;28;20203;-82
2024/01/23 11:34:43;;;;;;;1.45;1.35;;;9.40;99.90;;;;;;5022192;28;20220;-82
2024/01/23 11:37:45;;;;;;;4.90;2.72;;;9.70;99.90;;;;;;5027695;28;20196;-82
2024/01/23 11:40:30;;;;;;;2.35;1.40;;;9.50;99.90;;;;;;5026821;28;20234;-82
2024/01/23 11:42:59;;;;;;;3.35;1.67;;;9.20;99.90;;;;;;5030607;28;20202;-82
2024/01/23 11:45:28;;;;;;;0.85;0.85;;;9.00;99.90;;;;;;5033447;28;20223;-82
2024/01/23 11:47:57;;;;;;;4.50;1.02;;;9.00;99.90;;;;;;5031660;28;20223;-81
2024/01/23 11:50:23;;;;;;;0.50;0.50;;;9.10;99.90;;;;;;5044504;28;20196;-80
2024/01/23 11:52:53;;;;;;;3.25;2.45;;;9.20;99.90;;;;;;5032657;28;20239;-82
2024/01/23 11:55:21;;;;;;;2.20;1.35;;;9.50;99.90;;;;;;5025892;28;20219;-82
2024/01/23 11:57:49;;;;;;;0.70;0.70;;;9.80;99.90;;;;;;5026684;28;20575;-81
2024/01/23 12:00:17;;;;;;;17.02;2.58;;;9.90;99.90;;;;;;5030889;28;20226;-82
2024/01/23 12:02:46;;;;;;;11.45;1.92;;;10.10;99.90;;;;;;5030438;28;20198;-82
2024/01/23 12:05:13;;;;;;;5.67;4.20;;;10.40;99.90;;;;;;5034624;28;20208;-82
2024/01/23 12:07:40;;;;;;;9.57;1.90;;;10.50;99.90;;;;;;5034139;28;20935;-83
2024/01/23 12:10:08;;;;;;;4.33;1.40;;;10.60;99.90;;;;;;5028729;28;20202;-81
2024/01/23 12:12:35;;;;;;;2.25;0.88;;;10.10;99.90;;;;;;5032429;28;20483;-81
2024/01/23 12:15:04;;;;;;;17.43;1.20;;;9.90;99.90;;;;;;5030394;28;20240;-82
2024/01/23 12:17:31;;;;;;;3.17;1.75;;;9.70;99.90;;;;;;5030369;28;20438;-82
2024/01/23 12:20:04;;;;;;;2.95;1.50;;;9.30;99.90;;;;;;5029089;28;20204;-81
2024/01/23 12:22:31;;;;;;;1.00;0.75;;;9.10;99.90;;;;;;5031449;28;20184;-82
2024/01/23 12:24:58;;;;;;;1.75;1.05;;;9.10;99.90;;;;;;5026641;28;20227;-81
2024/01/23 12:27:25;;;;;;;3.47;2.33;;;9.20;99.90;;;;;;5029075;28;20188;-83
2024/01/23 12:29:53;;;;;;;2.70;1.27;;;9.30;99.90;;;;;;5029827;28;20196;-82
2024/01/23 12:32:19;;;;;;;0.50;0.40;;;9.30;99.90;;;;;;5033227;28;20192;-82
2024/01/23 12:34:47;;;;;;;4.30;2.50;;;9.20;99.90;;;;;;5035822;28;20234;-82
2024/01/23 12:37:16;;;;;;;19.15;3.00;;;9.10;99.90;;;;;;5030128;28;20733;-80
2024/01/23 12:39:44;;;;;;;24.67;1.50;;;9.10;99.90;;;;;;5030953;28;20192;-80
2024/01/23 12:42:10;;;;;;;4.38;1.92;;;9.00;99.90;;;;;;5034738;28;20254;-83
2024/01/23 12:44:37;;;;;;;4.63;1.02;;;9.00;99.90;;;;;;5026428;28;20220;-82
2024/01/23 12:47:07;;;;;;;1.38;1.10;;;8.90;99.90;;;;;;5029258;28;20206;-83
2024/01/23 12:49:36;;;;;;;0.50;0.43;;;8.80;99.90;;;;;;5029906;28;20258;-82
2024/01/23 12:52:04;;;;;;;1.40;1.17;;;8.70;99.90;;;;;;5027077;28;20199;-81
2024/01/23 12:54:32;;;;;;;0.85;0.85;;;8.60;99.90;;;;;;5022976;28;20219;-83
2024/01/23 12:56:59;;;;;;;0.93;0.60;;;8.60;99.90;;;;;;5028974;28;20195;-83